Flight Track Log - Related Links

Times and Time Zones

All times are in EDT time to prevent confusion due to time zone crossing. See the KAP528 flight status page for this flight to view local times or setup timezone preferences in your user account.


Time Position Orientation Groundspeed Altitude Reporting Facility
EDT Latitude Longitude Course Direction KTS MPH feet Rate Location/Type
Tue 02:41:33 PM 42.7278 -73.8053 134° Southeast 104 120 1,000  Level Boston Center
Tue 02:42:39 PM 42.7053 -73.7736 134° Southeast 121 139 2,200 1,038 Climbing Boston Center
Tue 02:43:46 PM 42.7017 -73.7228 96° East 126 145 3,300 984 Climbing Boston Center
Tue 02:44:47 PM 42.6958 -73.6717 99° East 131 151 4,300 1,033 Climbing Boston Center
Tue 02:45:48 PM 42.6881 -73.6178 101° East 135 155 5,400 614 Climbing Boston Center
Tue 02:46:54 PM 42.6803 -73.5642 101° East 140 161 5,600 236 Climbing Boston Center
Tue 02:47:55 PM 42.6683 -73.5047 105° East 161 185 5,900 436 Climbing Boston Center
Tue 02:48:44 PM 42.6564 -73.4592 110° East 155 178 6,400 550 Climbing Boston Center
Tue 02:49:44 PM 42.6506 -73.4083 99° East 142 163 6,900 397 Climbing Boston Center
Tue 02:50:45 PM 42.6447 -73.3517 98° East 141 162 7,200 396 Climbing Boston Center
Tue 02:51:15 PM 42.6408 -73.3236 101° East 141 162 7,500 393 Climbing Boston Center
Tue 02:51:46 PM 42.6389 -73.2981 96° East 144 166 7,600 200 Climbing Boston Center
Tue 02:52:15 PM 42.6328 -73.2669 105° East 147 169 7,700  Climbing Boston Center
Tue 02:52:47 PM 42.6331 -73.2386 89° East 156 180 7,600 -100 Descending Boston Center
Tue 02:53:15 PM 42.6311 -73.2161 97° East 165 190 7,600 68 Level Boston Center
Tue 02:54:15 PM 42.6233 -73.1456 98° East 171 197 7,700  Climbing Boston Center
Tue 02:55:15 PM 42.6194 -73.0892 95° East 171 197 7,600 -50 Descending Boston Center
Tue 02:56:15 PM 42.6094 -73.0183 101° East 171 197 7,600  Level Boston Center
Tue 02:57:15 PM 42.6014 -72.9478 99° East 183 211 7,600  Level Boston Center
Tue 02:58:15 PM 42.5933 -72.8856 100° East 178 205 7,600  Level Boston Center
Tue 02:59:15 PM 42.5831 -72.8208 102° East 178 205 7,600  Level Boston Center
Tue 03:00:15 PM 42.5750 -72.7558 100° East 178 205 7,600  Level Boston Center
Tue 03:01:15 PM 42.5689 -72.6967 98° East 178 205 7,600  Level Boston Center
Tue 03:02:15 PM 42.5608 -72.6289 99° East 172 198 7,600  Level Boston Center
Tue 03:03:15 PM 42.5544 -72.5642 98° East 172 198 7,600  Level Boston Center
Tue 03:04:15 PM 42.5483 -72.5133 99° East 167 192 7,600  Level Boston Center
Tue 03:05:15 PM 42.5400 -72.4372 98° East 167 192 7,600  Level Boston Center
Tue 03:06:15 PM 42.5317 -72.3725 100° East 167 192 7,600  Level Boston Center
Tue 03:07:15 PM 42.5233 -72.3078 100° East 162 186 7,600  Level Boston Center
Tue 03:08:15 PM 42.5147 -72.2400 100° East 167 192 7,600  Level Boston Center
Tue 03:09:15 PM 42.5064 -72.1839 101° East 167 192 7,600  Level Boston Center
Tue 03:10:15 PM 42.5000 -72.1164 97° East 167 192 7,600  Level Boston Center
Tue 03:11:15 PM 42.4914 -72.0572 101° East 167 192 7,600 -50 Level Boston Center
Tue 03:12:15 PM 42.4850 -71.9869 97° East 167 192 7,500 -250 Descending Boston Center
Tue 03:13:15 PM 42.4742 -71.9250 103° East 167 192 7,100 -300 Descending Boston Center
Tue 03:14:15 PM 42.4656 -71.8492 99° East 177 204 6,900 -250 Descending Boston Center
Tue 03:15:15 PM 42.4589 -71.7844 98° East 184 212 6,600 -350 Descending Boston Center
Tue 03:16:15 PM 42.4503 -71.7086 99° East 184 212 6,200 -318 Descending Boston Center
Tue 03:17:27 PM 42.4456 -71.6467 96° East 184 212 5,900 -316 Descending Boston Center
Tue 03:18:09 PM 42.4500 -71.5667 86° East 192 221 5,600 -176 Descending KA90
Tue 03:19:09 PM 42.4333 -71.5000 109° East 190 219 5,600  Level KA90
Tue 03:20:06 PM 42.4333 -71.4333 90° East 172 198 5,600 51 Level KA90
Tue 03:21:07 PM 42.4333 -71.3833 90° East 173 199 5,700  Climbing KA90
Tue 03:22:09 PM 42.4167 -71.3167 109° East 176 203 5,600 -49 Descending KA90
Tue 03:23:09 PM 42.4167 -71.2500 90° East 176 203 5,600 50 Level KA90
Tue 03:24:09 PM 42.4167 -71.1833 90° East 172 198 5,700 -254 Climbing KA90
Tue 03:25:07 PM 42.3667 -71.1667 166° South 166 191 5,100 -733 Descending KA90
Tue 03:25:39 PM 42.3494 -71.1731 195° South 136 157 4,600 -1,174 Descending Boston Center
Tue 03:26:39 PM 42.3136 -71.1372 144° Southeast 149 171 3,300 -1,214 Descending Boston Center
Tue 03:27:03 PM 42.3167 -71.1167 79° East 145 167 2,900 -1,200 Descending KA90
Tue 03:28:09 PM 42.3167 -71.0667 90° East 146 168 1,500 -1,095 Descending KA90
Tue 03:29:09 PM 42.3500 -71.0167 48° Northeast 135 155 600 -900 Descending KA90
Tue 03:31:00 PM 42.3500 -71.0000 103° East  Level FlightAware Approximate

Login

Don't have an account? Register now (free) for customized features, flight alerts, and more!